sensor_id;sensor_type;location;lat;lon;timestamp;temperature;humidity
75022;SHT31;63583;49.976;20.182;2023-07-20T00:02:21;19.32;73.19
75022;SHT31;63583;49.976;20.182;2023-07-20T00:04:46;19.13;74.65
75022;SHT31;63583;49.976;20.182;2023-07-20T00:07:12;18.98;75.89
75022;SHT31;63583;49.976;20.182;2023-07-20T00:09:37;19.09;76.24
75022;SHT31;63583;49.976;20.182;2023-07-20T00:12:03;18.81;77.10
75022;SHT31;63583;49.976;20.182;2023-07-20T00:14:29;18.76;76.52
75022;SHT31;63583;49.976;20.182;2023-07-20T00:16:55;18.72;75.70
75022;SHT31;63583;49.976;20.182;2023-07-20T00:19:25;18.63;75.71
75022;SHT31;63583;49.976;20.182;2023-07-20T00:21:52;18.54;76.20
75022;SHT31;63583;49.976;20.182;2023-07-20T00:24:17;18.66;75.95
75022;SHT31;63583;49.976;20.182;2023-07-20T00:26:43;18.62;76.41
75022;SHT31;63583;49.976;20.182;2023-07-20T00:29:09;18.49;77.17
75022;SHT31;63583;49.976;20.182;2023-07-20T00:31:35;18.44;77.26
75022;SHT31;63583;49.976;20.182;2023-07-20T00:34:05;18.35;76.87
75022;SHT31;63583;49.976;20.182;2023-07-20T00:36:31;18.17;78.03
75022;SHT31;63583;49.976;20.182;2023-07-20T00:38:57;18.14;77.80
75022;SHT31;63583;49.976;20.182;2023-07-20T00:41:23;18.28;77.87
75022;SHT31;63583;49.976;20.182;2023-07-20T00:43:48;18.21;77.01
75022;SHT31;63583;49.976;20.182;2023-07-20T00:46:14;18.03;77.14
75022;SHT31;63583;49.976;20.182;2023-07-20T00:48:41;18.10;76.62
75022;SHT31;63583;49.976;20.182;2023-07-20T00:51:07;18.27;77.10
75022;SHT31;63583;49.976;20.182;2023-07-20T00:53:32;18.23;77.34
75022;SHT31;63583;49.976;20.182;2023-07-20T00:55:58;18.17;77.47
75022;SHT31;63583;49.976;20.182;2023-07-20T00:58:24;18.24;76.86
75022;SHT31;63583;49.976;20.182;2023-07-20T01:00:50;18.31;76.77
75022;SHT31;63583;49.976;20.182;2023-07-20T01:03:16;18.25;77.03
75022;SHT31;63583;49.976;20.182;2023-07-20T01:05:50;18.33;76.33
75022;SHT31;63583;49.976;20.182;2023-07-20T01:08:40;18.33;76.11
75022;SHT31;63583;49.976;20.182;2023-07-20T01:11:21;18.42;75.77
75022;SHT31;63583;49.976;20.182;2023-07-20T01:13:48;18.37;76.11
75022;SHT31;63583;49.976;20.182;2023-07-20T01:16:14;18.47;75.75
75022;SHT31;63583;49.976;20.182;2023-07-20T01:18:40;18.52;75.40
75022;SHT31;63583;49.976;20.182;2023-07-20T01:21:13;18.41;75.59
75022;SHT31;63583;49.976;20.182;2023-07-20T01:26:52;18.41;76.13
75022;SHT31;63583;49.976;20.182;2023-07-20T01:30:24;18.55;75.21
75022;SHT31;63583;49.976;20.182;2023-07-20T01:32:19;18.40;74.88
75022;SHT31;63583;49.976;20.182;2023-07-20T01:34:49;18.49;74.50
75022;SHT31;63583;49.976;20.182;2023-07-20T01:37:16;18.49;74.67
75022;SHT31;63583;49.976;20.182;2023-07-20T01:39:45;18.47;74.77
75022;SHT31;63583;49.976;20.182;2023-07-20T01:42:11;18.51;74.44
75022;SHT31;63583;49.976;20.182;2023-07-20T01:44:38;18.65;73.99
75022;SHT31;63583;49.976;20.182;2023-07-20T01:47:04;18.88;71.95
75022;SHT31;63583;49.976;20.182;2023-07-20T01:49:29;18.88;71.48
75022;SHT31;63583;49.976;20.182;2023-07-20T01:51:55;19.11;70.91
75022;SHT31;63583;49.976;20.182;2023-07-20T01:54:20;19.17;71.66
75022;SHT31;63583;49.976;20.182;2023-07-20T01:56:46;19.00;72.55
75022;SHT31;63583;49.976;20.182;2023-07-20T01:59:12;18.77;73.82
75022;SHT31;63583;49.976;20.182;2023-07-20T02:01:38;18.62;74.99
75022;SHT31;63583;49.976;20.182;2023-07-20T02:04:03;18.56;75.53
75022;SHT31;63583;49.976;20.182;2023-07-20T02:06:30;18.62;74.91
75022;SHT31;63583;49.976;20.182;2023-07-20T02:08:55;18.75;74.49
75022;SHT31;63583;49.976;20.182;2023-07-20T02:11:21;18.63;74.90
75022;SHT31;63583;49.976;20.182;2023-07-20T02:13:47;18.66;74.85
75022;SHT31;63583;49.976;20.182;2023-07-20T02:16:12;18.73;74.46
75022;SHT31;63583;49.976;20.182;2023-07-20T02:18:38;18.88;73.14
75022;SHT31;63583;49.976;20.182;2023-07-20T02:21:04;18.92;72.65
75022;SHT31;63583;49.976;20.182;2023-07-20T02:23:29;18.90;72.56
75022;SHT31;63583;49.976;20.182;2023-07-20T02:25:55;18.96;72.32
75022;SHT31;63583;49.976;20.182;2023-07-20T02:28:20;18.99;72.36
75022;SHT31;63583;49.976;20.182;2023-07-20T02:30:46;18.98;72.44
75022;SHT31;63583;49.976;20.182;2023-07-20T02:33:11;18.93;73.05
75022;SHT31;63583;49.976;20.182;2023-07-20T02:35:37;18.90;73.02
75022;SHT31;63583;49.976;20.182;2023-07-20T02:38:03;18.76;73.81
75022;SHT31;63583;49.976;20.182;2023-07-20T02:40:29;18.72;73.52
75022;SHT31;63583;49.976;20.182;2023-07-20T02:42:54;18.73;73.78
75022;SHT31;63583;49.976;20.182;2023-07-20T02:45:20;18.62;73.71
75022;SHT31;63583;49.976;20.182;2023-07-20T02:47:45;18.63;73.53
75022;SHT31;63583;49.976;20.182;2023-07-20T02:50:11;18.62;73.64
75022;SHT31;63583;49.976;20.182;2023-07-20T02:52:38;18.61;73.54
75022;SHT31;63583;49.976;20.182;2023-07-20T02:55:04;18.59;73.17
75022;SHT31;63583;49.976;20.182;2023-07-20T02:57:30;18.68;73.46
75022;SHT31;63583;49.976;20.182;2023-07-20T02:59:55;18.63;73.59
75022;SHT31;63583;49.976;20.182;2023-07-20T03:02:21;18.65;73.28
75022;SHT31;63583;49.976;20.182;2023-07-20T03:04:47;18.68;73.06
75022;SHT31;63583;49.976;20.182;2023-07-20T03:07:12;18.66;72.99
75022;SHT31;63583;49.976;20.182;2023-07-20T03:09:38;18.66;72.82
75022;SHT31;63583;49.976;20.182;2023-07-20T03:12:05;18.76;72.54
75022;SHT31;63583;49.976;20.182;2023-07-20T03:14:31;18.69;72.35
75022;SHT31;63583;49.976;20.182;2023-07-20T03:16:56;18.86;70.90
75022;SHT31;63583;49.976;20.182;2023-07-20T03:19:22;18.77;71.29
75022;SHT31;63583;49.976;20.182;2023-07-20T03:21:47;18.77;71.08
75022;SHT31;63583;49.976;20.182;2023-07-20T03:24:13;18.79;71.23
75022;SHT31;63583;49.976;20.182;2023-07-20T03:26:39;18.92;71.18
75022;SHT31;63583;49.976;20.182;2023-07-20T03:29:05;18.81;71.97
75022;SHT31;63583;49.976;20.182;2023-07-20T03:31:32;18.93;71.77
75022;SHT31;63583;49.976;20.182;2023-07-20T03:33:57;18.89;72.37
75022;SHT31;63583;49.976;20.182;2023-07-20T03:36:23;18.77;73.10
75022;SHT31;63583;49.976;20.182;2023-07-20T03:38:49;18.79;73.88
75022;SHT31;63583;49.976;20.182;2023-07-20T03:41:15;18.69;73.66
75022;SHT31;63583;49.976;20.182;2023-07-20T03:43:41;18.62;73.79
75022;SHT31;63583;49.976;20.182;2023-07-20T03:46:07;18.47;73.24
75022;SHT31;63583;49.976;20.182;2023-07-20T03:48:33;18.49;73.23
75022;SHT31;63583;49.976;20.182;2023-07-20T03:50:59;18.45;73.65
75022;SHT31;63583;49.976;20.182;2023-07-20T03:53:25;18.42;73.84
75022;SHT31;63583;49.976;20.182;2023-07-20T03:55:52;18.52;73.60
75022;SHT31;63583;49.976;20.182;2023-07-20T03:58:19;18.38;74.08
75022;SHT31;63583;49.976;20.182;2023-07-20T04:00:49;18.44;74.17
75022;SHT31;63583;49.976;20.182;2023-07-20T04:03:16;18.40;74.46
75022;SHT31;63583;49.976;20.182;2023-07-20T04:05:42;18.21;75.85
75022;SHT31;63583;49.976;20.182;2023-07-20T04:08:08;18.27;75.26
75022;SHT31;63583;49.976;20.182;2023-07-20T04:10:34;18.15;75.60
75022;SHT31;63583;49.976;20.182;2023-07-20T04:13:00;18.17;75.90
75022;SHT31;63583;49.976;20.182;2023-07-20T04:15:26;18.23;75.63
75022;SHT31;63583;49.976;20.182;2023-07-20T04:17:52;18.25;75.56
75022;SHT31;63583;49.976;20.182;2023-07-20T04:20:17;18.24;75.20
75022;SHT31;63583;49.976;20.182;2023-07-20T04:22:43;18.21;75.76
75022;SHT31;63583;49.976;20.182;2023-07-20T04:25:09;18.28;76.03
75022;SHT31;63583;49.976;20.182;2023-07-20T04:27:36;18.25;76.09
75022;SHT31;63583;49.976;20.182;2023-07-20T04:30:02;18.35;75.86
75022;SHT31;63583;49.976;20.182;2023-07-20T04:32:29;18.23;76.41
75022;SHT31;63583;49.976;20.182;2023-07-20T04:34:54;18.21;76.71
75022;SHT31;63583;49.976;20.182;2023-07-20T04:37:20;18.06;77.76
75022;SHT31;63583;49.976;20.182;2023-07-20T04:39:46;18.13;77.50
75022;SHT31;63583;49.976;20.182;2023-07-20T04:42:11;18.31;77.05
75022;SHT31;63583;49.976;20.182;2023-07-20T04:44:37;18.56;76.28
75022;SHT31;63583;49.976;20.182;2023-07-20T04:47:03;18.69;75.99
75022;SHT31;63583;49.976;20.182;2023-07-20T04:49:28;18.68;76.73
75022;SHT31;63583;49.976;20.182;2023-07-20T04:51:54;18.83;75.14
75022;SHT31;63583;49.976;20.182;2023-07-20T04:54:19;18.79;75.81
75022;SHT31;63583;49.976;20.182;2023-07-20T04:56:45;18.90;75.45
75022;SHT31;63583;49.976;20.182;2023-07-20T04:59:11;18.71;75.51
75022;SHT31;63583;49.976;20.182;2023-07-20T05:01:36;18.76;75.73
75022;SHT31;63583;49.976;20.182;2023-07-20T05:04:02;18.52;76.75
75022;SHT31;63583;49.976;20.182;2023-07-20T05:06:28;18.47;75.74
75022;SHT31;63583;49.976;20.182;2023-07-20T05:08:54;18.51;75.90
75022;SHT31;63583;49.976;20.182;2023-07-20T05:11:19;18.45;75.64
75022;SHT31;63583;49.976;20.182;2023-07-20T05:13:45;18.27;76.82
75022;SHT31;63583;49.976;20.182;2023-07-20T05:16:11;18.25;76.50
75022;SHT31;63583;49.976;20.182;2023-07-20T05:18:36;18.11;77.27
75022;SHT31;63583;49.976;20.182;2023-07-20T05:21:02;17.90;76.42
75022;SHT31;63583;49.976;20.182;2023-07-20T05:23:28;17.79;76.47
75022;SHT31;63583;49.976;20.182;2023-07-20T05:25:58;17.73;76.54
75022;SHT31;63583;49.976;20.182;2023-07-20T05:28:24;17.63;76.64
75022;SHT31;63583;49.976;20.182;2023-07-20T05:30:51;17.65;77.34
75022;SHT31;63583;49.976;20.182;2023-07-20T05:33:20;17.61;77.45
75022;SHT31;63583;49.976;20.182;2023-07-20T05:35:46;17.73;77.62
75022;SHT31;63583;49.976;20.182;2023-07-20T05:38:11;17.70;76.22
75022;SHT31;63583;49.976;20.182;2023-07-20T05:40:39;17.62;76.24
75022;SHT31;63583;49.976;20.182;2023-07-20T05:43:05;17.59;75.53
75022;SHT31;63583;49.976;20.182;2023-07-20T05:45:31;17.62;75.65
75022;SHT31;63583;49.976;20.182;2023-07-20T05:47:56;17.69;75.65
75022;SHT31;63583;49.976;20.182;2023-07-20T05:50:22;17.94;75.06
75022;SHT31;63583;49.976;20.182;2023-07-20T05:52:48;17.85;75.79
75022;SHT31;63583;49.976;20.182;2023-07-20T05:55:13;18.06;75.59
75022;SHT31;63583;49.976;20.182;2023-07-20T05:57:39;18.08;75.35
75022;SHT31;63583;49.976;20.182;2023-07-20T06:00:08;18.56;74.00
75022;SHT31;63583;49.976;20.182;2023-07-20T06:02:34;18.68;73.03
75022;SHT31;63583;49.976;20.182;2023-07-20T06:05:00;18.52;73.86
75022;SHT31;63583;49.976;20.182;2023-07-20T06:07:25;18.48;73.14
75022;SHT31;63583;49.976;20.182;2023-07-20T06:09:51;18.58;72.51
75022;SHT31;63583;49.976;20.182;2023-07-20T06:12:17;18.79;70.78
75022;SHT31;63583;49.976;20.182;2023-07-20T06:14:42;19.10;69.62
75022;SHT31;63583;49.976;20.182;2023-07-20T06:17:08;18.89;71.02
75022;SHT31;63583;49.976;20.182;2023-07-20T06:19:35;19.10;71.70
75022;SHT31;63583;49.976;20.182;2023-07-20T06:22:00;19.23;70.61
75022;SHT31;63583;49.976;20.182;2023-07-20T06:24:26;19.69;69.51
75022;SHT31;63583;49.976;20.182;2023-07-20T06:26:51;19.72;68.58
75022;SHT31;63583;49.976;20.182;2023-07-20T06:29:17;20.10;70.86
75022;SHT31;63583;49.976;20.182;2023-07-20T06:31:43;20.29;71.10
75022;SHT31;63583;49.976;20.182;2023-07-20T06:34:09;20.78;68.91
75022;SHT31;63583;49.976;20.182;2023-07-20T06:36:34;21.15;69.03
75022;SHT31;63583;49.976;20.182;2023-07-20T06:39:00;21.47;67.44
75022;SHT31;63583;49.976;20.182;2023-07-20T06:41:27;21.16;66.56
75022;SHT31;63583;49.976;20.182;2023-07-20T06:43:53;20.51;72.52
75022;SHT31;63583;49.976;20.182;2023-07-20T06:46:26;20.32;67.19
75022;SHT31;63583;49.976;20.182;2023-07-20T06:48:53;20.00;69.35
75022;SHT31;63583;49.976;20.182;2023-07-20T06:51:19;20.41;71.32
75022;SHT31;63583;49.976;20.182;2023-07-20T06:53:45;20.41;68.40
75022;SHT31;63583;49.976;20.182;2023-07-20T06:56:10;20.68;69.28
75022;SHT31;63583;49.976;20.182;2023-07-20T06:58:36;20.61;66.88
75022;SHT31;63583;49.976;20.182;2023-07-20T07:01:06;20.65;66.43
75022;SHT31;63583;49.976;20.182;2023-07-20T07:03:32;20.55;65.07
75022;SHT31;63583;49.976;20.182;2023-07-20T07:05:58;20.61;66.74
75022;SHT31;63583;49.976;20.182;2023-07-20T07:08:24;21.08;65.15
75022;SHT31;63583;49.976;20.182;2023-07-20T07:10:50;21.40;63.80
75022;SHT31;63583;49.976;20.182;2023-07-20T07:13:16;21.49;64.09
75022;SHT31;63583;49.976;20.182;2023-07-20T07:15:42;21.50;61.36
75022;SHT31;63583;49.976;20.182;2023-07-20T07:18:08;21.28;62.39
75022;SHT31;63583;49.976;20.182;2023-07-20T07:20:33;21.05;61.73
75022;SHT31;63583;49.976;20.182;2023-07-20T07:22:59;21.15;62.00
75022;SHT31;63583;49.976;20.182;2023-07-20T07:25:26;21.18;62.28
75022;SHT31;63583;49.976;20.182;2023-07-20T07:27:53;21.25;62.37
75022;SHT31;63583;49.976;20.182;2023-07-20T07:30:19;21.45;62.57
75022;SHT31;63583;49.976;20.182;2023-07-20T07:32:45;21.66;62.62
75022;SHT31;63583;49.976;20.182;2023-07-20T07:35:10;21.47;60.76
75022;SHT31;63583;49.976;20.182;2023-07-20T07:37:37;21.12;63.80
75022;SHT31;63583;49.976;20.182;2023-07-20T07:40:03;20.82;65.39
75022;SHT31;63583;49.976;20.182;2023-07-20T07:42:29;21.06;65.13
75022;SHT31;63583;49.976;20.182;2023-07-20T07:44:55;20.96;64.12
75022;SHT31;63583;49.976;20.182;2023-07-20T07:47:20;21.02;65.75
75022;SHT31;63583;49.976;20.182;2023-07-20T07:49:46;21.19;66.31
75022;SHT31;63583;49.976;20.182;2023-07-20T07:52:12;21.64;67.13
75022;SHT31;63583;49.976;20.182;2023-07-20T07:54:37;21.13;65.65
75022;SHT31;63583;49.976;20.182;2023-07-20T07:57:03;20.75;67.61
75022;SHT31;63583;49.976;20.182;2023-07-20T07:59:29;21.39;64.86
75022;SHT31;63583;49.976;20.182;2023-07-20T08:01:56;21.61;64.58
75022;SHT31;63583;49.976;20.182;2023-07-20T08:04:23;21.76;62.46
75022;SHT31;63583;49.976;20.182;2023-07-20T08:06:49;21.59;62.72
75022;SHT31;63583;49.976;20.182;2023-07-20T08:09:15;21.59;63.58
75022;SHT31;63583;49.976;20.182;2023-07-20T08:11:41;21.53;62.60
75022;SHT31;63583;49.976;20.182;2023-07-20T08:14:06;21.66;62.31
75022;SHT31;63583;49.976;20.182;2023-07-20T08:16:32;21.73;62.75
75022;SHT31;63583;49.976;20.182;2023-07-20T08:18:57;21.97;62.46
75022;SHT31;63583;49.976;20.182;2023-07-20T08:21:23;22.22;63.14
75022;SHT31;63583;49.976;20.182;2023-07-20T08:23:49;22.22;62.36
75022;SHT31;63583;49.976;20.182;2023-07-20T08:26:14;22.21;62.29
75022;SHT31;63583;49.976;20.182;2023-07-20T08:28:40;22.11;61.44
75022;SHT31;63583;49.976;20.182;2023-07-20T08:31:06;22.24;62.21
75022;SHT31;63583;49.976;20.182;2023-07-20T08:33:32;22.12;62.14
75022;SHT31;63583;49.976;20.182;2023-07-20T08:36:00;21.68;63.65
75022;SHT31;63583;49.976;20.182;2023-07-20T08:38:27;21.77;64.32
75022;SHT31;63583;49.976;20.182;2023-07-20T08:40:53;21.59;64.37
75022;SHT31;63583;49.976;20.182;2023-07-20T08:43:20;21.88;63.83
75022;SHT31;63583;49.976;20.182;2023-07-20T08:45:48;21.71;63.78
75022;SHT31;63583;49.976;20.182;2023-07-20T08:48:15;21.26;64.67
75022;SHT31;63583;49.976;20.182;2023-07-20T08:50:41;21.38;64.73
75022;SHT31;63583;49.976;20.182;2023-07-20T08:53:08;21.51;64.98
75022;SHT31;63583;49.976;20.182;2023-07-20T08:55:34;20.96;66.90
75022;SHT31;63583;49.976;20.182;2023-07-20T08:58:02;20.65;69.11
75022;SHT31;63583;49.976;20.182;2023-07-20T09:00:28;20.55;68.96
75022;SHT31;63583;49.976;20.182;2023-07-20T09:02:54;20.88;68.82
75022;SHT31;63583;49.976;20.182;2023-07-20T09:05:23;21.20;66.82
75022;SHT31;63583;49.976;20.182;2023-07-20T09:07:49;21.63;66.14
75022;SHT31;63583;49.976;20.182;2023-07-20T09:10:15;21.95;63.03
75022;SHT31;63583;49.976;20.182;2023-07-20T09:12:42;21.91;63.93
75022;SHT31;63583;49.976;20.182;2023-07-20T09:15:09;21.87;65.86
75022;SHT31;63583;49.976;20.182;2023-07-20T09:17:36;21.53;63.82
75022;SHT31;63583;49.976;20.182;2023-07-20T09:20:04;22.16;64.59
75022;SHT31;63583;49.976;20.182;2023-07-20T09:22:36;22.12;63.15
75022;SHT31;63583;49.976;20.182;2023-07-20T09:25:06;22.26;64.23
75022;SHT31;63583;49.976;20.182;2023-07-20T09:27:38;22.39;65.14
75022;SHT31;63583;49.976;20.182;2023-07-20T09:30:05;22.56;63.38
75022;SHT31;63583;49.976;20.182;2023-07-20T09:32:38;22.81;61.86
75022;SHT31;63583;49.976;20.182;2023-07-20T09:35:04;23.01;59.89
75022;SHT31;63583;49.976;20.182;2023-07-20T09:37:33;22.90;60.33
75022;SHT31;63583;49.976;20.182;2023-07-20T09:39:59;22.99;59.21
75022;SHT31;63583;49.976;20.182;2023-07-20T09:42:25;23.03;58.98
75022;SHT31;63583;49.976;20.182;2023-07-20T09:44:52;23.52;61.01
75022;SHT31;63583;49.976;20.182;2023-07-20T09:47:22;23.48;59.85
75022;SHT31;63583;49.976;20.182;2023-07-20T09:49:48;23.21;60.65
75022;SHT31;63583;49.976;20.182;2023-07-20T09:52:15;23.28;59.86
75022;SHT31;63583;49.976;20.182;2023-07-20T09:54:44;23.52;58.93
75022;SHT31;63583;49.976;20.182;2023-07-20T09:57:11;23.48;58.79
75022;SHT31;63583;49.976;20.182;2023-07-20T09:59:39;23.55;60.02
75022;SHT31;63583;49.976;20.182;2023-07-20T10:02:13;23.52;59.11
75022;SHT31;63583;49.976;20.182;2023-07-20T10:04:43;23.32;58.20
75022;SHT31;63583;49.976;20.182;2023-07-20T10:07:10;23.04;58.17
75022;SHT31;63583;49.976;20.182;2023-07-20T10:09:39;22.80;58.59
75022;SHT31;63583;49.976;20.182;2023-07-20T10:12:07;22.91;58.43
75022;SHT31;63583;49.976;20.182;2023-07-20T10:14:35;23.07;57.46
75022;SHT31;63583;49.976;20.182;2023-07-20T10:17:04;23.11;59.38
75022;SHT31;63583;49.976;20.182;2023-07-20T10:19:44;23.56;59.78
75022;SHT31;63583;49.976;20.182;2023-07-20T10:22:19;23.55;59.38
75022;SHT31;63583;49.976;20.182;2023-07-20T10:24:46;23.65;56.11
75022;SHT31;63583;49.976;20.182;2023-07-20T10:27:13;24.00;57.69
75022;SHT31;63583;49.976;20.182;2023-07-20T10:29:40;24.13;55.31
75022;SHT31;63583;49.976;20.182;2023-07-20T10:32:08;23.80;54.20
75022;SHT31;63583;49.976;20.182;2023-07-20T10:34:34;24.13;54.86
75022;SHT31;63583;49.976;20.182;2023-07-20T10:37:00;24.20;54.92
75022;SHT31;63583;49.976;20.182;2023-07-20T10:39:27;23.70;56.62
75022;SHT31;63583;49.976;20.182;2023-07-20T10:42:06;23.63;56.87
75022;SHT31;63583;49.976;20.182;2023-07-20T10:44:33;23.44;57.43
75022;SHT31;63583;49.976;20.182;2023-07-20T10:47:03;23.47;56.93
75022;SHT31;63583;49.976;20.182;2023-07-20T10:49:34;23.75;58.10
75022;SHT31;63583;49.976;20.182;2023-07-20T10:52:04;23.95;56.17
75022;SHT31;63583;49.976;20.182;2023-07-20T10:56:57;23.27;55.57
75022;SHT31;63583;49.976;20.182;2023-07-20T11:01:49;23.34;55.94
75022;SHT31;63583;49.976;20.182;2023-07-20T11:04:15;23.39;56.82
75022;SHT31;63583;49.976;20.182;2023-07-20T11:06:45;23.58;56.28
75022;SHT31;63583;49.976;20.182;2023-07-20T11:09:13;23.59;57.57
75022;SHT31;63583;49.976;20.182;2023-07-20T11:11:43;23.48;56.77
75022;SHT31;63583;49.976;20.182;2023-07-20T11:14:20;23.39;57.21
75022;SHT31;63583;49.976;20.182;2023-07-20T11:16:47;23.34;57.81
75022;SHT31;63583;49.976;20.182;2023-07-20T11:19:17;23.42;57.61
75022;SHT31;63583;49.976;20.182;2023-07-20T11:21:51;23.24;55.82
75022;SHT31;63583;49.976;20.182;2023-07-20T11:24:17;23.38;56.17
75022;SHT31;63583;49.976;20.182;2023-07-20T11:29:13;23.28;56.16
75022;SHT31;63583;49.976;20.182;2023-07-20T11:31:40;23.32;56.67
75022;SHT31;63583;49.976;20.182;2023-07-20T11:34:20;23.61;54.34
75022;SHT31;63583;49.976;20.182;2023-07-20T11:36:49;23.58;54.63
75022;SHT31;63583;49.976;20.182;2023-07-20T11:39:16;23.87;54.97
75022;SHT31;63583;49.976;20.182;2023-07-20T11:41:49;23.66;53.86
75022;SHT31;63583;49.976;20.182;2023-07-20T11:44:19;23.59;53.38
75022;SHT31;63583;49.976;20.182;2023-07-20T11:46:46;23.58;52.63
75022;SHT31;63583;49.976;20.182;2023-07-20T11:49:12;23.65;54.50
75022;SHT31;63583;49.976;20.182;2023-07-20T11:51:39;23.62;54.22
75022;SHT31;63583;49.976;20.182;2023-07-20T11:54:07;23.79;56.28
75022;SHT31;63583;49.976;20.182;2023-07-20T11:56:32;23.82;54.40
75022;SHT31;63583;49.976;20.182;2023-07-20T11:58:58;23.72;55.00
75022;SHT31;63583;49.976;20.182;2023-07-20T12:01:27;23.80;54.53
75022;SHT31;63583;49.976;20.182;2023-07-20T12:04:03;23.93;53.38
75022;SHT31;63583;49.976;20.182;2023-07-20T12:06:29;23.97;54.11
75022;SHT31;63583;49.976;20.182;2023-07-20T12:08:57;24.00;54.35
75022;SHT31;63583;49.976;20.182;2023-07-20T12:11:36;23.76;54.87
75022;SHT31;63583;49.976;20.182;2023-07-20T12:14:03;23.93;53.71
75022;SHT31;63583;49.976;20.182;2023-07-20T12:16:30;23.82;55.10
75022;SHT31;63583;49.976;20.182;2023-07-20T12:19:02;24.02;53.88
75022;SHT31;63583;49.976;20.182;2023-07-20T12:21:29;23.86;53.67
75022;SHT31;63583;49.976;20.182;2023-07-20T12:23:56;24.09;54.46
75022;SHT31;63583;49.976;20.182;2023-07-20T12:26:23;23.89;53.13
75022;SHT31;63583;49.976;20.182;2023-07-20T12:28:49;23.63;54.19
75022;SHT31;63583;49.976;20.182;2023-07-20T12:31:15;23.49;54.95
75022;SHT31;63583;49.976;20.182;2023-07-20T12:33:41;23.35;55.63
75022;SHT31;63583;49.976;20.182;2023-07-20T12:36:08;23.32;57.23
75022;SHT31;63583;49.976;20.182;2023-07-20T12:38:34;23.51;57.19
75022;SHT31;63583;49.976;20.182;2023-07-20T12:41:01;23.72;57.15
75022;SHT31;63583;49.976;20.182;2023-07-20T12:43:26;23.87;57.29
75022;SHT31;63583;49.976;20.182;2023-07-20T12:45:53;24.14;57.02
75022;SHT31;63583;49.976;20.182;2023-07-20T12:48:20;24.20;55.93
75022;SHT31;63583;49.976;20.182;2023-07-20T12:50:46;24.25;54.94
75022;SHT31;63583;49.976;20.182;2023-07-20T12:53:11;24.21;50.73
75022;SHT31;63583;49.976;20.182;2023-07-20T12:55:38;24.10;53.97
75022;SHT31;63583;49.976;20.182;2023-07-20T12:58:04;24.00;55.00
75022;SHT31;63583;49.976;20.182;2023-07-20T13:00:30;24.16;54.50
75022;SHT31;63583;49.976;20.182;2023-07-20T13:02:56;24.40;53.93
75022;SHT31;63583;49.976;20.182;2023-07-20T13:05:21;24.31;53.07
75022;SHT31;63583;49.976;20.182;2023-07-20T13:07:47;24.34;53.35
75022;SHT31;63583;49.976;20.182;2023-07-20T13:10:13;24.43;53.63
75022;SHT31;63583;49.976;20.182;2023-07-20T13:12:38;24.21;52.12
75022;SHT31;63583;49.976;20.182;2023-07-20T13:15:06;24.28;51.77
75022;SHT31;63583;49.976;20.182;2023-07-20T13:17:33;24.47;53.46
75022;SHT31;63583;49.976;20.182;2023-07-20T13:19:59;24.64;52.52
75022;SHT31;63583;49.976;20.182;2023-07-20T13:22:25;24.93;48.89
75022;SHT31;63583;49.976;20.182;2023-07-20T13:24:50;25.12;51.47
75022;SHT31;63583;49.976;20.182;2023-07-20T13:27:16;25.38;51.37
75022;SHT31;63583;49.976;20.182;2023-07-20T13:29:43;25.40;48.40
75022;SHT31;63583;49.976;20.182;2023-07-20T13:32:09;25.40;48.37
75022;SHT31;63583;49.976;20.182;2023-07-20T13:34:35;25.41;47.64
75022;SHT31;63583;49.976;20.182;2023-07-20T13:37:02;25.46;49.08
75022;SHT31;63583;49.976;20.182;2023-07-20T13:39:27;25.38;50.73
75022;SHT31;63583;49.976;20.182;2023-07-20T13:41:54;25.24;49.79
75022;SHT31;63583;49.976;20.182;2023-07-20T13:44:22;25.19;48.35
75022;SHT31;63583;49.976;20.182;2023-07-20T13:46:48;25.19;48.52
75022;SHT31;63583;49.976;20.182;2023-07-20T13:49:14;25.27;48.39
75022;SHT31;63583;49.976;20.182;2023-07-20T13:51:41;24.89;49.00
75022;SHT31;63583;49.976;20.182;2023-07-20T13:54:07;24.79;49.91
75022;SHT31;63583;49.976;20.182;2023-07-20T13:56:33;24.86;48.26
75022;SHT31;63583;49.976;20.182;2023-07-20T13:58:58;24.67;50.26
75022;SHT31;63583;49.976;20.182;2023-07-20T14:01:24;24.43;50.92
75022;SHT31;63583;49.976;20.182;2023-07-20T14:03:50;24.55;51.59
75022;SHT31;63583;49.976;20.182;2023-07-20T14:06:17;24.45;52.23
75022;SHT31;63583;49.976;20.182;2023-07-20T14:08:43;24.57;51.15
75022;SHT31;63583;49.976;20.182;2023-07-20T14:11:15;24.40;51.24
75022;SHT31;63583;49.976;20.182;2023-07-20T14:13:41;24.45;51.61
75022;SHT31;63583;49.976;20.182;2023-07-20T14:16:07;24.50;52.29
75022;SHT31;63583;49.976;20.182;2023-07-20T14:18:33;24.13;52.31
75022;SHT31;63583;49.976;20.182;2023-07-20T14:20:59;24.16;50.14
75022;SHT31;63583;49.976;20.182;2023-07-20T14:23:25;24.09;51.14
75022;SHT31;63583;49.976;20.182;2023-07-20T14:25:51;24.17;50.73
75022;SHT31;63583;49.976;20.182;2023-07-20T14:28:16;24.20;51.42
75022;SHT31;63583;49.976;20.182;2023-07-20T14:30:42;24.54;51.07
75022;SHT31;63583;49.976;20.182;2023-07-20T14:33:07;24.72;49.29
75022;SHT31;63583;49.976;20.182;2023-07-20T14:35:34;24.90;49.53
75022;SHT31;63583;49.976;20.182;2023-07-20T14:38:00;24.92;49.25
75022;SHT31;63583;49.976;20.182;2023-07-20T14:40:26;24.85;48.39
75022;SHT31;63583;49.976;20.182;2023-07-20T14:42:52;24.76;48.99
75022;SHT31;63583;49.976;20.182;2023-07-20T14:45:18;24.76;50.06
75022;SHT31;63583;49.976;20.182;2023-07-20T14:47:44;24.67;47.97
75022;SHT31;63583;49.976;20.182;2023-07-20T14:50:11;24.57;48.91
75022;SHT31;63583;49.976;20.182;2023-07-20T14:52:36;24.31;49.29
75022;SHT31;63583;49.976;20.182;2023-07-20T14:55:02;24.14;48.88
75022;SHT31;63583;49.976;20.182;2023-07-20T14:57:28;24.04;51.08
75022;SHT31;63583;49.976;20.182;2023-07-20T14:59:54;22.74;57.69
75022;SHT31;63583;49.976;20.182;2023-07-20T15:02:19;22.69;59.08
75022;SHT31;63583;49.976;20.182;2023-07-20T15:04:49;22.43;60.46
75022;SHT31;63583;49.976;20.182;2023-07-20T15:07:16;22.36;60.11
75022;SHT31;63583;49.976;20.182;2023-07-20T15:09:42;22.25;59.97
75022;SHT31;63583;49.976;20.182;2023-07-20T15:12:08;21.91;60.83
75022;SHT31;63583;49.976;20.182;2023-07-20T15:14:33;21.80;61.11
75022;SHT31;63583;49.976;20.182;2023-07-20T15:16:59;21.81;62.21
75022;SHT31;63583;49.976;20.182;2023-07-20T15:19:25;22.12;60.54
75022;SHT31;63583;49.976;20.182;2023-07-20T15:21:50;21.91;61.75
75022;SHT31;63583;49.976;20.182;2023-07-20T15:24:16;21.88;60.95